createdAt,value
2019-03-08T00:02:01.604Z,54.53
2019-03-08T00:04:33.537Z,59.33
2019-03-08T00:07:08.424Z,57.27
2019-03-08T00:09:40.297Z,57.90
2019-03-08T00:12:12.679Z,65.57
2019-03-08T00:14:44.575Z,62.17
2019-03-08T00:17:16.480Z,66.05
2019-03-08T00:19:48.914Z,61.15
2019-03-08T00:22:21.239Z,62.38
2019-03-08T00:24:52.902Z,69.85
2019-03-08T00:27:25.470Z,89.87
2019-03-08T00:29:57.449Z,73.37
2019-03-08T00:32:29.208Z,64.00
2019-03-08T00:35:01.315Z,72.80
2019-03-08T00:37:32.947Z,74.30
2019-03-08T00:40:05.275Z,80.67
2019-03-08T00:42:37.418Z,78.22
2019-03-08T00:45:13.550Z,78.47
2019-03-08T00:47:45.464Z,74.32
2019-03-08T00:50:23.094Z,70.62
2019-03-08T00:52:55.260Z,72.53
2019-03-08T00:55:27.310Z,62.95
2019-03-08T00:57:59.327Z,61.15
2019-03-08T01:00:31.218Z,56.73
2019-03-08T01:03:03.069Z,56.58
2019-03-08T01:05:34.915Z,62.70
2019-03-08T01:08:07.642Z,60.63
2019-03-08T01:10:39.399Z,54.55
2019-03-08T01:13:11.406Z,54.60
2019-03-08T01:15:43.650Z,56.63
2019-03-08T01:18:15.494Z,52.43
2019-03-08T01:20:47.333Z,53.35
2019-03-08T01:23:19.700Z,44.33
2019-03-08T01:25:51.534Z,49.20
2019-03-08T01:28:23.268Z,46.40
2019-03-08T01:30:55.556Z,46.55
2019-03-08T01:33:27.683Z,46.02
2019-03-08T01:35:59.501Z,43.87
2019-03-08T01:38:38.815Z,52.73
2019-03-08T01:41:11.695Z,54.90
2019-03-08T01:43:44.345Z,45.23
2019-03-08T01:46:16.134Z,50.15
2019-03-08T01:49:10.393Z,47.70
2019-03-08T01:51:42.497Z,51.30
2019-03-08T01:54:14.437Z,43.65
2019-03-08T01:56:46.228Z,47.98
2019-03-08T01:59:17.887Z,57.98
2019-03-08T02:01:50.172Z,41.80
2019-03-08T02:04:22.285Z,46.30
2019-03-08T02:07:13.223Z,42.50
2019-03-08T02:09:48.713Z,45.10
2019-03-08T02:12:21.780Z,46.98
2019-03-08T02:14:53.343Z,46.85
2019-03-08T02:17:26.350Z,37.30
2019-03-08T02:19:58.143Z,38.88
2019-03-08T02:22:34.890Z,40.35
2019-03-08T02:25:07.062Z,31.48
2019-03-08T02:27:39.042Z,40.08
2019-03-08T02:30:14.525Z,37.00
2019-03-08T02:32:46.987Z,39.00
2019-03-08T02:35:24.125Z,34.60
2019-03-08T02:38:15.414Z,36.63
2019-03-08T02:40:47.832Z,33.95
2019-03-08T02:43:20.519Z,34.90
2019-03-08T02:45:52.596Z,31.65
2019-03-08T02:48:24.168Z,37.08
2019-03-08T02:50:55.863Z,33.83
2019-03-08T02:53:48.179Z,38.53
2019-03-08T02:56:20.577Z,32.03
2019-03-08T02:58:52.595Z,30.10
2019-03-08T03:01:24.898Z,39.25
2019-03-08T03:03:57.273Z,34.23
2019-03-08T03:06:29.845Z,33.02
2019-03-08T03:09:02.979Z,33.10
2019-03-08T03:11:35.755Z,32.65
2019-03-08T03:14:07.550Z,34.25
2019-03-08T03:16:39.532Z,34.35
2019-03-08T03:19:11.479Z,33.83
2019-03-08T03:21:43.495Z,38.30
2019-03-08T03:24:15.441Z,37.75
2019-03-08T03:26:47.576Z,41.28
2019-03-08T03:29:28.317Z,33.95
2019-03-08T03:32:20.072Z,34.78
2019-03-08T03:34:53.515Z,36.90
2019-03-08T03:37:25.528Z,31.55
2019-03-08T03:39:57.637Z,35.55
2019-03-08T03:42:29.713Z,32.20
2019-03-08T03:45:01.969Z,31.07
2019-03-08T03:47:33.718Z,33.88
2019-03-08T03:50:07.220Z,31.37
2019-03-08T03:52:40.159Z,34.80
2019-03-08T03:55:15.860Z,35.08
2019-03-08T03:57:47.715Z,30.40
2019-03-08T04:00:23.752Z,29.72
2019-03-08T04:02:55.708Z,26.60
2019-03-08T04:05:28.460Z,24.45
2019-03-08T04:08:00.568Z,30.45
2019-03-08T04:10:32.411Z,23.47
2019-03-08T04:13:05.568Z,28.05
2019-03-08T04:15:38.557Z,25.02
2019-03-08T04:18:16.246Z,30.95
2019-03-08T04:20:50.380Z,27.30
2019-03-08T04:23:22.392Z,23.73
2019-03-08T04:26:01.291Z,25.88
2019-03-08T04:28:36.359Z,30.62
2019-03-08T04:31:08.628Z,31.20
2019-03-08T04:33:40.764Z,27.20
2019-03-08T04:36:12.563Z,26.93
2019-03-08T04:38:44.568Z,25.30
2019-03-08T04:41:16.686Z,26.45
2019-03-08T04:43:48.472Z,24.30
2019-03-08T04:46:20.459Z,27.20
2019-03-08T04:48:52.272Z,25.97
2019-03-08T04:51:24.741Z,24.35
2019-03-08T04:53:56.874Z,26.97
2019-03-08T04:56:28.703Z,24.90
2019-03-08T04:59:01.007Z,21.42
2019-03-08T05:01:34.008Z,20.82
2019-03-08T05:04:07.806Z,25.68
2019-03-08T05:06:52.087Z,20.30
2019-03-08T05:09:22.870Z,23.55
2019-03-08T05:11:54.738Z,23.90
2019-03-08T05:14:28.040Z,34.00
2019-03-08T05:16:59.998Z,20.57
2019-03-08T05:19:32.003Z,18.30
2019-03-08T05:22:04.159Z,22.45
2019-03-08T05:24:36.334Z,19.17
2019-03-08T05:27:08.029Z,21.07
2019-03-08T05:29:41.404Z,18.32
2019-03-08T05:32:13.054Z,19.37
2019-03-08T05:34:45.172Z,20.82
2019-03-08T05:37:17.185Z,18.23
2019-03-08T05:39:49.131Z,13.78
2019-03-08T05:42:21.241Z,17.95
2019-03-08T05:44:53.736Z,17.73
2019-03-08T05:47:25.652Z,19.30
2019-03-08T05:49:57.422Z,15.83
2019-03-08T05:52:29.729Z,13.43
2019-03-08T05:55:01.704Z,18.87
2019-03-08T05:57:33.545Z,15.63
2019-03-08T06:00:07.089Z,14.65
2019-03-08T06:02:51.702Z,15.43
2019-03-08T06:05:26.787Z,18.92
2019-03-08T06:08:06.239Z,17.45
2019-03-08T06:10:42.914Z,19.75
2019-03-08T06:13:15.437Z,20.25
2019-03-08T06:15:49.189Z,21.95
2019-03-08T06:18:20.998Z,19.65
2019-03-08T06:21:12.507Z,17.57
2019-03-08T06:23:45.265Z,16.35
2019-03-08T06:26:20.502Z,18.73
2019-03-08T06:28:52.287Z,13.83
2019-03-08T06:31:26.513Z,16.55
2019-03-08T06:34:00.821Z,13.68
2019-03-08T06:36:32.573Z,13.83
2019-03-08T06:39:06.615Z,19.37
2019-03-08T06:41:38.245Z,13.68
2019-03-08T06:44:09.866Z,25.72
2019-03-08T06:46:42.801Z,17.23
2019-03-08T06:49:14.569Z,14.58
2019-03-08T06:51:46.493Z,15.75
2019-03-08T06:54:18.402Z,14.93
2019-03-08T06:56:50.315Z,10.65
2019-03-08T06:59:24.218Z,9.90
2019-03-08T07:01:56.380Z,12.80
2019-03-08T07:04:28.296Z,19.20
2019-03-08T07:07:01.131Z,15.65
2019-03-08T07:09:33.205Z,18.75
2019-03-08T07:12:11.270Z,13.93
2019-03-08T07:17:14.470Z,11.95
2019-03-08T07:19:48.043Z,15.88
2019-03-08T07:22:21.735Z,12.50
2019-03-08T07:24:54.960Z,11.63
2019-03-08T07:27:28.023Z,15.98
2019-03-08T07:30:02.958Z,21.68
2019-03-08T07:32:36.224Z,13.32
2019-03-08T07:35:11.236Z,10.20
2019-03-08T07:37:45.587Z,16.12
2019-03-08T07:40:19.410Z,17.30
2019-03-08T07:42:55.261Z,14.45
2019-03-08T07:45:28.650Z,13.45
2019-03-08T07:48:01.664Z,15.28
2019-03-08T07:50:36.337Z,14.85
2019-03-08T07:53:07.696Z,12.13
2019-03-08T07:55:54.462Z,14.07
2019-03-08T07:58:27.842Z,25.05
2019-03-08T08:01:01.666Z,17.92
2019-03-08T08:03:34.888Z,14.47
2019-03-08T08:06:11.743Z,13.53
2019-03-08T08:08:51.528Z,13.95
2019-03-08T08:11:21.470Z,11.83
2019-03-08T08:13:54.357Z,11.38
2019-03-08T08:16:27.981Z,14.85
2019-03-08T08:19:16.037Z,17.95
2019-03-08T08:21:49.575Z,11.80
2019-03-08T08:24:23.545Z,17.42
2019-03-08T08:26:56.675Z,13.83
2019-03-08T08:29:35.171Z,16.30
2019-03-08T08:34:42.353Z,13.53
2019-03-08T08:37:15.602Z,18.07
2019-03-08T08:39:48.682Z,15.70
2019-03-08T08:42:22.434Z,20.60
2019-03-08T08:44:55.550Z,15.90
2019-03-08T08:47:31.978Z,17.52
2019-03-08T08:50:12.781Z,17.55
2019-03-08T08:52:56.465Z,15.05
2019-03-08T08:55:29.697Z,20.35
2019-03-08T08:58:03.517Z,17.70
2019-03-08T09:00:39.852Z,18.77
2019-03-08T09:03:13.798Z,15.43
2019-03-08T09:05:47.112Z,17.35
2019-03-08T09:08:38.192Z,26.82
2019-03-08T09:11:11.635Z,18.40
2019-03-08T09:13:43.570Z,18.45
2019-03-08T09:16:17.379Z,25.23
2019-03-08T09:18:50.965Z,17.67
2019-03-08T09:21:24.003Z,15.72
2019-03-08T09:23:58.301Z,14.23
2019-03-08T09:26:33.118Z,11.73
2019-03-08T09:29:07.035Z,15.70
2019-03-08T09:31:40.548Z,17.52
2019-03-08T09:34:15.784Z,15.88
2019-03-08T09:36:49.275Z,19.50
2019-03-08T09:39:24.834Z,17.35
2019-03-08T09:41:57.846Z,17.02
2019-03-08T09:44:31.303Z,11.57
2019-03-08T09:47:07.118Z,14.70
2019-03-08T09:49:43.753Z,15.08
2019-03-08T09:52:17.351Z,18.07
2019-03-08T09:54:53.502Z,16.30
2019-03-08T09:57:25.768Z,14.13
2019-03-08T09:59:59.238Z,16.35
2019-03-08T10:02:32.267Z,16.75
2019-03-08T10:05:05.857Z,19.60
2019-03-08T10:07:39.021Z,19.75
2019-03-08T10:10:14.152Z,18.15
2019-03-08T10:12:50.789Z,19.45
2019-03-08T10:15:25.789Z,12.13
2019-03-08T10:18:09.241Z,18.75
2019-03-08T10:20:42.680Z,16.62
2019-03-08T10:23:19.977Z,15.90
2019-03-08T10:25:50.985Z,20.72
2019-03-08T10:28:24.334Z,15.50
2019-03-08T10:30:57.901Z,20.45
2019-03-08T10:33:31.016Z,21.25
2019-03-08T10:36:04.552Z,14.95
2019-03-08T10:38:37.518Z,17.85
2019-03-08T10:41:11.267Z,34.67
2019-03-08T10:43:44.269Z,25.57
2019-03-08T10:46:18.250Z,35.90
2019-03-08T10:48:51.401Z,27.00
2019-03-08T10:51:24.605Z,22.48
2019-03-08T10:54:00.706Z,23.30
2019-03-08T10:56:33.184Z,20.15
2019-03-08T10:59:06.376Z,22.07
2019-03-08T11:01:38.985Z,31.07
2019-03-08T11:04:12.456Z,20.88
2019-03-08T11:06:45.903Z,22.67
2019-03-08T11:09:21.641Z,29.85
2019-03-08T11:11:56.256Z,29.92
2019-03-08T11:14:32.007Z,24.05
2019-03-08T11:17:05.792Z,25.32
2019-03-08T11:19:39.131Z,21.57
2019-03-08T11:22:12.652Z,21.80
2019-03-08T11:24:46.994Z,20.52
2019-03-08T11:27:20.320Z,28.98
2019-03-08T11:29:53.757Z,23.05
2019-03-08T11:32:28.545Z,20.72
2019-03-08T11:35:06.046Z,19.07
2019-03-08T11:37:44.042Z,17.98
2019-03-08T11:40:17.742Z,21.68
2019-03-08T11:42:51.645Z,23.65
2019-03-08T11:45:26.234Z,17.85
2019-03-08T11:47:59.493Z,18.07
2019-03-08T11:50:32.635Z,21.10
2019-03-08T11:53:06.379Z,20.92
2019-03-08T11:55:42.538Z,19.48
2019-03-08T11:58:16.747Z,22.50
2019-03-08T12:00:50.047Z,20.40
2019-03-08T12:03:23.518Z,18.12
2019-03-08T12:05:56.527Z,22.13
2019-03-08T12:08:31.000Z,18.70
2019-03-08T12:11:07.964Z,25.25
2019-03-08T12:13:41.960Z,25.23
2019-03-08T12:16:13.720Z,24.35
2019-03-08T12:18:47.104Z,71.75
2019-03-08T12:21:19.895Z,32.98
2019-03-08T12:23:53.058Z,19.40
2019-03-08T12:26:27.098Z,26.35
2019-03-08T12:29:06.736Z,22.10
2019-03-08T12:31:39.717Z,23.57
2019-03-08T12:34:13.325Z,27.02
2019-03-08T12:36:46.399Z,22.90
2019-03-08T12:39:20.413Z,23.27
2019-03-08T12:41:53.621Z,25.43
2019-03-08T12:44:28.583Z,28.55
2019-03-08T12:47:01.768Z,26.00
2019-03-08T12:49:35.137Z,23.07
2019-03-08T12:52:08.373Z,25.05
2019-03-08T12:54:41.861Z,25.15
2019-03-08T12:57:15.052Z,30.25
2019-03-08T12:59:49.689Z,25.70
2019-03-08T13:02:22.758Z,28.50
2019-03-08T13:04:59.424Z,25.57
2019-03-08T13:07:30.506Z,31.40
2019-03-08T13:10:04.077Z,22.15
2019-03-08T13:12:36.212Z,22.80
2019-03-08T13:15:11.784Z,27.10
2019-03-08T13:17:43.565Z,29.12
2019-03-08T13:20:20.107Z,36.55
2019-03-08T13:22:51.992Z,32.05
2019-03-08T13:25:24.110Z,28.17
2019-03-08T13:27:56.737Z,41.18
2019-03-08T13:30:28.705Z,26.12
2019-03-08T13:33:00.800Z,23.07
2019-03-08T13:35:33.100Z,32.38
2019-03-08T13:38:04.591Z,26.33
2019-03-08T13:40:37.612Z,24.07
2019-03-08T13:43:09.486Z,35.58
2019-03-08T13:45:41.486Z,29.27
2019-03-08T13:48:13.561Z,18.87
2019-03-08T13:50:45.578Z,21.40
2019-03-08T13:53:17.501Z,28.25
2019-03-08T13:55:49.183Z,27.62
2019-03-08T13:58:41.316Z,26.93
2019-03-08T14:01:13.439Z,26.82
2019-03-08T14:03:45.416Z,25.92
2019-03-08T14:06:17.412Z,22.87
2019-03-08T14:08:49.529Z,23.87
2019-03-08T14:11:21.194Z,21.17
2019-03-08T14:13:53.246Z,26.05
2019-03-08T14:16:25.300Z,31.17
2019-03-08T14:18:57.254Z,23.50
2019-03-08T14:21:31.468Z,25.15
2019-03-08T14:24:03.559Z,23.75
2019-03-08T14:26:35.417Z,28.95
2019-03-08T14:29:08.740Z,26.15
2019-03-08T14:31:45.376Z,24.30
2019-03-08T14:34:17.096Z,25.52
2019-03-08T14:36:48.849Z,27.90
2019-03-08T14:39:24.841Z,32.08
2019-03-08T14:41:58.926Z,26.17
2019-03-08T14:44:34.005Z,28.77
2019-03-08T14:47:07.284Z,24.63
2019-03-08T14:49:39.502Z,33.80
2019-03-08T14:52:11.682Z,28.52
2019-03-08T14:54:46.433Z,36.48
2019-03-08T14:57:26.770Z,29.27
2019-03-08T14:59:53.104Z,28.50
2019-03-08T15:02:25.720Z,30.15
2019-03-08T15:04:57.787Z,34.35
2019-03-08T15:07:29.670Z,29.67
2019-03-08T15:10:05.906Z,34.27
2019-03-08T15:12:37.592Z,35.50
2019-03-08T15:15:13.089Z,34.60
2019-03-08T15:17:45.164Z,30.08
2019-03-08T15:20:19.912Z,28.25
2019-03-08T15:22:51.848Z,29.40
2019-03-08T15:25:45.309Z,32.25
2019-03-08T15:28:16.297Z,28.90
2019-03-08T15:31:02.538Z,37.33
2019-03-08T15:33:35.170Z,29.48
2019-03-08T15:36:08.410Z,35.60
2019-03-08T15:38:40.537Z,33.08
2019-03-08T15:41:12.256Z,28.50
2019-03-08T15:43:47.030Z,33.95
2019-03-08T15:46:22.044Z,32.40
2019-03-08T15:49:03.923Z,35.95
2019-03-08T15:51:41.380Z,40.17
2019-03-08T15:54:16.475Z,32.03
2019-03-08T15:56:47.855Z,33.00
2019-03-08T15:59:19.414Z,34.58
2019-03-08T16:01:51.930Z,38.15
2019-03-08T16:04:23.773Z,33.18
2019-03-08T16:06:55.526Z,42.55
2019-03-08T16:09:27.204Z,34.27
2019-03-08T16:11:58.972Z,33.60
2019-03-08T16:14:31.074Z,32.17
2019-03-08T16:17:03.052Z,34.88
2019-03-08T16:19:35.033Z,35.92
2019-03-08T16:22:08.603Z,27.90
2019-03-08T16:24:40.213Z,34.13
2019-03-08T16:27:11.669Z,28.50
2019-03-08T16:29:43.370Z,30.52
2019-03-08T16:32:17.885Z,29.12
2019-03-08T16:34:50.114Z,34.10
2019-03-08T16:37:23.366Z,31.10
2019-03-08T16:39:56.874Z,33.85
2019-03-08T16:42:30.116Z,30.88
2019-03-08T16:45:03.361Z,37.60
2019-03-08T16:47:42.490Z,28.57
2019-03-08T16:50:14.787Z,33.38
2019-03-08T16:52:49.577Z,27.75
2019-03-08T16:55:40.398Z,30.77
2019-03-08T16:58:14.718Z,33.20
2019-03-08T17:00:48.017Z,41.58
2019-03-08T17:03:21.209Z,34.90
2019-03-08T17:05:54.334Z,37.58
2019-03-08T17:08:27.506Z,37.85
2019-03-08T17:11:01.298Z,39.70
2019-03-08T17:13:35.057Z,33.33
2019-03-08T17:16:08.172Z,33.95
2019-03-08T17:18:41.608Z,32.10
2019-03-08T17:21:14.783Z,34.27
2019-03-08T17:23:47.987Z,31.57
2019-03-08T17:26:20.057Z,32.13
2019-03-08T17:28:53.769Z,33.85
2019-03-08T17:31:27.261Z,31.62
2019-03-08T17:34:03.005Z,34.25
2019-03-08T17:36:38.295Z,33.28
2019-03-08T17:39:13.126Z,39.90
2019-03-08T17:41:46.169Z,38.92
2019-03-08T17:44:19.555Z,49.08
2019-03-08T17:46:53.071Z,37.10
2019-03-08T17:49:26.395Z,46.23
2019-03-08T17:51:59.470Z,31.93
2019-03-08T17:54:32.598Z,38.80
2019-03-08T17:57:05.984Z,40.25
2019-03-08T17:59:38.519Z,42.55
2019-03-08T18:02:12.114Z,40.33
2019-03-08T18:04:45.522Z,41.37
2019-03-08T18:07:18.558Z,39.48
2019-03-08T18:09:51.725Z,40.23
2019-03-08T18:12:24.669Z,43.68
2019-03-08T18:14:58.932Z,40.65
2019-03-08T18:17:32.022Z,40.78
2019-03-08T18:20:07.776Z,41.63
2019-03-08T18:22:40.688Z,40.15
2019-03-08T18:25:13.851Z,45.12
2019-03-08T18:27:46.945Z,48.60
2019-03-08T18:30:20.753Z,40.60
2019-03-08T18:32:53.831Z,46.53
2019-03-08T18:35:29.952Z,38.23
2019-03-08T18:38:02.913Z,46.15
2019-03-08T18:40:35.764Z,44.85
2019-03-08T18:43:09.787Z,39.42
2019-03-08T18:45:43.598Z,43.45
2019-03-08T18:48:14.994Z,41.33
2019-03-08T18:50:48.072Z,41.25
2019-03-08T18:53:21.959Z,45.12
2019-03-08T18:55:53.197Z,37.67
2019-03-08T18:58:26.372Z,42.95
2019-03-08T19:01:00.311Z,39.18
2019-03-08T19:03:31.758Z,38.63
2019-03-08T19:06:05.583Z,42.03
2019-03-08T19:08:38.511Z,35.10
2019-03-08T19:11:10.538Z,37.58
2019-03-08T19:13:43.495Z,38.67
2019-03-08T19:16:16.537Z,35.95
2019-03-08T19:18:49.458Z,36.60
2019-03-08T19:21:25.703Z,45.83
2019-03-08T19:23:58.718Z,31.33
2019-03-08T19:26:32.139Z,33.00
2019-03-08T19:29:05.220Z,36.58
2019-03-08T19:31:38.505Z,31.73
2019-03-08T19:34:11.716Z,34.67
2019-03-08T19:36:46.132Z,37.35
2019-03-08T19:39:17.753Z,36.65
2019-03-08T19:41:50.992Z,32.88
2019-03-08T19:44:24.774Z,32.65
2019-03-08T19:46:59.521Z,37.35
2019-03-08T19:49:30.869Z,35.25
2019-03-08T19:52:03.865Z,31.73
2019-03-08T19:54:37.089Z,35.38
2019-03-08T19:57:10.153Z,36.23
2019-03-08T19:59:43.218Z,35.03
2019-03-08T20:02:16.192Z,33.98
2019-03-08T20:04:49.709Z,36.77
2019-03-08T20:07:22.477Z,46.48
2019-03-08T20:09:55.534Z,38.20
2019-03-08T20:12:28.646Z,36.73
2019-03-08T20:15:02.380Z,37.93
2019-03-08T20:17:35.184Z,45.67
2019-03-08T20:20:16.690Z,41.65
2019-03-08T20:22:49.569Z,43.45
2019-03-08T20:25:23.082Z,44.18
2019-03-08T20:27:56.042Z,45.65
2019-03-08T20:30:29.215Z,40.40
2019-03-08T20:33:02.244Z,40.00
2019-03-08T20:35:35.426Z,41.70
2019-03-08T20:38:10.103Z,43.60
2019-03-08T20:40:43.628Z,43.95
2019-03-08T20:43:16.467Z,49.60
2019-03-08T20:45:49.693Z,48.25
2019-03-08T20:48:21.582Z,46.20
2019-03-08T20:50:53.459Z,51.33
2019-03-08T20:53:25.936Z,38.33
2019-03-08T20:55:57.663Z,44.38
2019-03-08T20:58:29.442Z,42.98
2019-03-08T21:01:01.809Z,44.45
2019-03-08T21:03:33.680Z,37.48
2019-03-08T21:06:05.553Z,38.85
2019-03-08T21:08:37.384Z,45.12
2019-03-08T21:11:09.158Z,37.85
2019-03-08T21:13:40.748Z,36.80
2019-03-08T21:16:13.074Z,47.03
2019-03-08T21:18:44.844Z,37.25
2019-03-08T21:21:19.140Z,43.20
2019-03-08T21:23:51.029Z,43.17
2019-03-08T21:26:22.602Z,39.20
2019-03-08T21:28:54.466Z,51.48
2019-03-08T21:31:26.499Z,49.30
2019-03-08T21:33:58.413Z,50.83
2019-03-08T21:36:31.789Z,44.83
2019-03-08T21:39:05.597Z,52.03
2019-03-08T21:41:38.070Z,64.72
2019-03-08T21:44:09.633Z,75.17
2019-03-08T21:46:41.367Z,82.65
2019-03-08T21:49:13.351Z,79.72
2019-03-08T21:51:45.208Z,50.60
2019-03-08T21:54:16.895Z,51.80
2019-03-08T21:56:48.685Z,46.98
2019-03-08T21:59:21.229Z,35.70
2019-03-08T22:01:52.958Z,42.30
2019-03-08T22:04:26.087Z,39.23
2019-03-08T22:06:58.385Z,35.83
2019-03-08T22:09:31.784Z,35.15
2019-03-08T22:12:03.626Z,37.90
2019-03-08T22:14:36.050Z,36.03
2019-03-08T22:17:08.113Z,34.38
2019-03-08T22:19:40.005Z,36.28
2019-03-08T22:22:11.735Z,36.08
2019-03-08T22:24:44.344Z,37.33
2019-03-08T22:27:15.952Z,38.80
2019-03-08T22:29:50.313Z,36.38
2019-03-08T22:32:22.056Z,34.45
2019-03-08T22:34:53.720Z,38.15
2019-03-08T22:37:25.602Z,37.45
2019-03-08T22:39:59.292Z,34.80
2019-03-08T22:42:32.076Z,38.13
2019-03-08T22:45:04.045Z,39.98
2019-03-08T22:47:36.313Z,40.75
2019-03-08T22:50:11.941Z,48.98
2019-03-08T22:52:44.519Z,43.85
2019-03-08T22:55:17.421Z,42.90
2019-03-08T22:57:49.093Z,46.28
2019-03-08T23:00:26.143Z,49.23
2019-03-08T23:02:57.611Z,49.10
2019-03-08T23:05:29.076Z,45.23
2019-03-08T23:08:00.919Z,50.50
2019-03-08T23:10:32.491Z,53.00
2019-03-08T23:13:04.562Z,48.60
2019-03-08T23:15:36.728Z,52.80
2019-03-08T23:18:08.696Z,47.75
2019-03-08T23:20:40.310Z,50.05
2019-03-08T23:23:12.811Z,49.35
2019-03-08T23:25:44.565Z,46.25
2019-03-08T23:28:17.657Z,40.75
2019-03-08T23:30:50.777Z,48.87
2019-03-08T23:33:22.483Z,60.95
2019-03-08T23:35:53.960Z,57.30
2019-03-08T23:38:26.013Z,57.40
2019-03-08T23:40:58.710Z,47.25
2019-03-08T23:43:30.583Z,51.15
2019-03-08T23:46:02.444Z,60.00
2019-03-08T23:48:34.205Z,48.48
2019-03-08T23:51:06.182Z,46.80
2019-03-08T23:53:37.880Z,47.03
2019-03-08T23:56:09.783Z,46.70
2019-03-08T23:58:41.745Z,44.75
